sensor_id;sensor_type;location;lat;lon;timestamp;pressure;altitude;pressure_sealevel;temperature;humidity
10988;BME280;5547;42.672;23.230;2022-12-18T00:01:53;94081.13;;;4.18;100.00
10988;BME280;5547;42.672;23.230;2022-12-18T00:04:53;94079.38;;;3.91;100.00
10988;BME280;5547;42.672;23.230;2022-12-18T00:07:54;94086.44;;;3.87;100.00
10988;BME280;5547;42.672;23.230;2022-12-18T00:10:54;94081.50;;;3.85;100.00
10988;BME280;5547;42.672;23.230;2022-12-18T00:13:56;94100.28;;;3.84;100.00
10988;BME280;5547;42.672;23.230;2022-12-18T00:16:57;94098.56;;;3.91;100.00
10988;BME280;5547;42.672;23.230;2022-12-18T00:20:00;94090.00;;;3.78;100.00
10988;BME280;5547;42.672;23.230;2022-12-18T00:23:01;94094.44;;;3.74;100.00
10988;BME280;5547;42.672;23.230;2022-12-18T00:26:04;94088.91;;;3.64;100.00
10988;BME280;5547;42.672;23.230;2022-12-18T00:29:09;94113.78;;;3.66;100.00
10988;BME280;5547;42.672;23.230;2022-12-18T00:32:10;94119.97;;;3.58;100.00
10988;BME280;5547;42.672;23.230;2022-12-18T00:35:10;94114.31;;;3.56;100.00
10988;BME280;5547;42.672;23.230;2022-12-18T00:38:11;94117.00;;;3.60;100.00
10988;BME280;5547;42.672;23.230;2022-12-18T00:41:13;94116.50;;;3.54;100.00
10988;BME280;5547;42.672;23.230;2022-12-18T00:44:34;94128.38;;;3.48;100.00
10988;BME280;5547;42.672;23.230;2022-12-18T00:47:34;94126.59;;;3.68;100.00
10988;BME280;5547;42.672;23.230;2022-12-18T00:50:35;94125.47;;;3.53;100.00
10988;BME280;5547;42.672;23.230;2022-12-18T00:53:35;94126.06;;;3.46;100.00
10988;BME280;5547;42.672;23.230;2022-12-18T00:56:37;94117.97;;;3.23;100.00
10988;BME280;5547;42.672;23.230;2022-12-18T00:59:38;94134.94;;;3.26;100.00
10988;BME280;5547;42.672;23.230;2022-12-18T01:02:38;94139.88;;;3.27;100.00
10988;BME280;5547;42.672;23.230;2022-12-18T01:05:42;94140.28;;;3.13;100.00
10988;BME280;5547;42.672;23.230;2022-12-18T01:08:43;94139.00;;;3.23;100.00
10988;BME280;5547;42.672;23.230;2022-12-18T01:11:44;94141.72;;;3.11;100.00
10988;BME280;5547;42.672;23.230;2022-12-18T01:14:44;94146.41;;;3.18;100.00
10988;BME280;5547;42.672;23.230;2022-12-18T01:17:45;94150.97;;;3.21;100.00
10988;BME280;5547;42.672;23.230;2022-12-18T01:20:45;94144.34;;;3.11;100.00
10988;BME280;5547;42.672;23.230;2022-12-18T01:23:46;94153.81;;;3.00;100.00
10988;BME280;5547;42.672;23.230;2022-12-18T01:26:46;94148.13;;;2.98;100.00
10988;BME280;5547;42.672;23.230;2022-12-18T01:29:47;94150.56;;;2.90;100.00
10988;BME280;5547;42.672;23.230;2022-12-18T01:32:47;94161.94;;;2.94;100.00
10988;BME280;5547;42.672;23.230;2022-12-18T01:35:48;94158.88;;;2.92;100.00
10988;BME280;5547;42.672;23.230;2022-12-18T01:38:49;94156.91;;;2.89;100.00
10988;BME280;5547;42.672;23.230;2022-12-18T01:41:50;94163.44;;;2.95;100.00
10988;BME280;5547;42.672;23.230;2022-12-18T01:45:23;94169.06;;;2.94;100.00
10988;BME280;5547;42.672;23.230;2022-12-18T01:48:24;94173.38;;;2.74;100.00
10988;BME280;5547;42.672;23.230;2022-12-18T01:51:27;94168.31;;;2.81;100.00
10988;BME280;5547;42.672;23.230;2022-12-18T01:54:28;94168.78;;;2.71;100.00
10988;BME280;5547;42.672;23.230;2022-12-18T01:57:29;94180.69;;;2.81;100.00
10988;BME280;5547;42.672;23.230;2022-12-18T02:00:29;94167.66;;;2.84;100.00
10988;BME280;5547;42.672;23.230;2022-12-18T02:03:30;94169.44;;;2.80;100.00
10988;BME280;5547;42.672;23.230;2022-12-18T02:06:38;94168.69;;;3.08;100.00
10988;BME280;5547;42.672;23.230;2022-12-18T02:09:48;94173.50;;;3.06;100.00
10988;BME280;5547;42.672;23.230;2022-12-18T02:13:06;94176.88;;;2.78;100.00
10988;BME280;5547;42.672;23.230;2022-12-18T02:16:21;94173.50;;;2.78;100.00
10988;BME280;5547;42.672;23.230;2022-12-18T02:19:58;94184.63;;;2.74;100.00
10988;BME280;5547;42.672;23.230;2022-12-18T02:29:29;94193.66;;;2.61;100.00
10988;BME280;5547;42.672;23.230;2022-12-18T02:32:35;94203.59;;;2.68;100.00
10988;BME280;5547;42.672;23.230;2022-12-18T02:35:38;94195.72;;;2.68;100.00
10988;BME280;5547;42.672;23.230;2022-12-18T02:38:41;94201.41;;;2.70;100.00
10988;BME280;5547;42.672;23.230;2022-12-18T02:41:42;94202.94;;;2.59;100.00
10988;BME280;5547;42.672;23.230;2022-12-18T02:45:02;94206.81;;;2.61;100.00
10988;BME280;5547;42.672;23.230;2022-12-18T02:48:03;94214.34;;;2.50;100.00
10988;BME280;5547;42.672;23.230;2022-12-18T02:51:15;94212.28;;;2.44;100.00
10988;BME280;5547;42.672;23.230;2022-12-18T03:00:52;94208.97;;;2.47;100.00
10988;BME280;5547;42.672;23.230;2022-12-18T03:04:01;94204.94;;;2.62;100.00
10988;BME280;5547;42.672;23.230;2022-12-18T03:07:09;94218.41;;;2.36;100.00
10988;BME280;5547;42.672;23.230;2022-12-18T03:10:14;94217.75;;;2.39;100.00
10988;BME280;5547;42.672;23.230;2022-12-18T03:13:24;94214.38;;;2.26;100.00
10988;BME280;5547;42.672;23.230;2022-12-18T03:16:29;94222.16;;;2.22;100.00
10988;BME280;5547;42.672;23.230;2022-12-18T03:19:32;94232.63;;;2.10;100.00
10988;BME280;5547;42.672;23.230;2022-12-18T03:22:34;94230.09;;;2.26;100.00
10988;BME280;5547;42.672;23.230;2022-12-18T03:25:37;94230.78;;;2.23;100.00
10988;BME280;5547;42.672;23.230;2022-12-18T03:28:43;94244.22;;;2.21;100.00
10988;BME280;5547;42.672;23.230;2022-12-18T03:31:49;94249.56;;;2.13;100.00
10988;BME280;5547;42.672;23.230;2022-12-18T03:34:51;94238.31;;;2.00;100.00
10988;BME280;5547;42.672;23.230;2022-12-18T03:37:55;94231.63;;;1.90;100.00
10988;BME280;5547;42.672;23.230;2022-12-18T03:53:52;94270.00;;;2.07;100.00
10988;BME280;5547;42.672;23.230;2022-12-18T03:57:02;94272.09;;;2.01;100.00
10988;BME280;5547;42.672;23.230;2022-12-18T04:00:10;94268.13;;;1.95;100.00
10988;BME280;5547;42.672;23.230;2022-12-18T04:03:12;94262.53;;;1.84;100.00
10988;BME280;5547;42.672;23.230;2022-12-18T04:06:14;94271.19;;;1.85;100.00
10988;BME280;5547;42.672;23.230;2022-12-18T04:09:17;94270.75;;;1.83;100.00
10988;BME280;5547;42.672;23.230;2022-12-18T04:12:18;94273.13;;;1.76;100.00
10988;BME280;5547;42.672;23.230;2022-12-18T04:15:19;94286.34;;;1.79;100.00
10988;BME280;5547;42.672;23.230;2022-12-18T04:18:19;94286.13;;;1.72;100.00
10988;BME280;5547;42.672;23.230;2022-12-18T04:21:20;94293.44;;;1.66;100.00
10988;BME280;5547;42.672;23.230;2022-12-18T04:24:20;94300.06;;;1.85;100.00
10988;BME280;5547;42.672;23.230;2022-12-18T04:27:21;94300.00;;;1.73;100.00
10988;BME280;5547;42.672;23.230;2022-12-18T04:30:21;94308.75;;;1.77;100.00
10988;BME280;5547;42.672;23.230;2022-12-18T04:33:22;94319.91;;;1.74;100.00
10988;BME280;5547;42.672;23.230;2022-12-18T04:36:25;94319.91;;;1.74;100.00
10988;BME280;5547;42.672;23.230;2022-12-18T04:39:25;94317.03;;;1.66;100.00
10988;BME280;5547;42.672;23.230;2022-12-18T04:42:26;94333.13;;;1.77;100.00
10988;BME280;5547;42.672;23.230;2022-12-18T04:45:26;94328.91;;;1.64;100.00
10988;BME280;5547;42.672;23.230;2022-12-18T04:48:27;94326.19;;;1.60;100.00
10988;BME280;5547;42.672;23.230;2022-12-18T04:51:27;94327.16;;;1.56;100.00
10988;BME280;5547;42.672;23.230;2022-12-18T04:54:28;94341.00;;;1.77;100.00
10988;BME280;5547;42.672;23.230;2022-12-18T04:57:28;94345.78;;;1.75;100.00
10988;BME280;5547;42.672;23.230;2022-12-18T05:00:29;94347.34;;;1.76;100.00
10988;BME280;5547;42.672;23.230;2022-12-18T05:03:29;94356.53;;;1.82;100.00
10988;BME280;5547;42.672;23.230;2022-12-18T05:06:30;94345.63;;;1.80;100.00
10988;BME280;5547;42.672;23.230;2022-12-18T05:09:30;94374.38;;;1.89;100.00
10988;BME280;5547;42.672;23.230;2022-12-18T05:12:31;94375.34;;;1.84;100.00
10988;BME280;5547;42.672;23.230;2022-12-18T05:15:32;94369.63;;;2.03;100.00
10988;BME280;5547;42.672;23.230;2022-12-18T05:18:33;94371.19;;;1.83;100.00
10988;BME280;5547;42.672;23.230;2022-12-18T05:21:34;94374.81;;;1.91;100.00
10988;BME280;5547;42.672;23.230;2022-12-18T05:24:35;94382.38;;;1.93;100.00
10988;BME280;5547;42.672;23.230;2022-12-18T05:27:35;94387.03;;;1.87;100.00
10988;BME280;5547;42.672;23.230;2022-12-18T05:30:36;94386.63;;;1.85;100.00
10988;BME280;5547;42.672;23.230;2022-12-18T05:33:37;94400.59;;;1.89;100.00
10988;BME280;5547;42.672;23.230;2022-12-18T05:36:37;94400.53;;;1.98;100.00
10988;BME280;5547;42.672;23.230;2022-12-18T05:39:38;94401.34;;;2.10;100.00
10988;BME280;5547;42.672;23.230;2022-12-18T05:42:38;94413.78;;;2.01;100.00
10988;BME280;5547;42.672;23.230;2022-12-18T05:45:40;94422.50;;;2.26;100.00
10988;BME280;5547;42.672;23.230;2022-12-18T05:48:41;94422.25;;;1.86;100.00
10988;BME280;5547;42.672;23.230;2022-12-18T05:51:41;94413.13;;;2.04;100.00
10988;BME280;5547;42.672;23.230;2022-12-18T05:54:42;94423.97;;;1.82;100.00
10988;BME280;5547;42.672;23.230;2022-12-18T05:57:42;94425.19;;;1.63;100.00
10988;BME280;5547;42.672;23.230;2022-12-18T06:00:44;94425.88;;;1.52;100.00
10988;BME280;5547;42.672;23.230;2022-12-18T06:03:45;94427.09;;;1.54;100.00
10988;BME280;5547;42.672;23.230;2022-12-18T06:06:46;94429.41;;;1.56;100.00
10988;BME280;5547;42.672;23.230;2022-12-18T06:09:46;94435.66;;;1.63;100.00
10988;BME280;5547;42.672;23.230;2022-12-18T06:12:47;94452.06;;;1.60;100.00
10988;BME280;5547;42.672;23.230;2022-12-18T06:15:47;94445.66;;;1.70;100.00
10988;BME280;5547;42.672;23.230;2022-12-18T06:18:47;94446.56;;;1.74;100.00
10988;BME280;5547;42.672;23.230;2022-12-18T06:21:48;94443.97;;;1.44;100.00
10988;BME280;5547;42.672;23.230;2022-12-18T06:24:49;94449.63;;;1.55;100.00
10988;BME280;5547;42.672;23.230;2022-12-18T06:27:50;94452.84;;;1.52;100.00
10988;BME280;5547;42.672;23.230;2022-12-18T06:30:50;94455.72;;;1.38;100.00
10988;BME280;5547;42.672;23.230;2022-12-18T06:33:51;94435.88;;;1.29;100.00
10988;BME280;5547;42.672;23.230;2022-12-18T06:36:52;94457.88;;;1.36;100.00
10988;BME280;5547;42.672;23.230;2022-12-18T06:39:53;94473.56;;;1.45;100.00
10988;BME280;5547;42.672;23.230;2022-12-18T06:42:54;94475.19;;;1.58;100.00
10988;BME280;5547;42.672;23.230;2022-12-18T06:45:59;94469.88;;;1.46;100.00
10988;BME280;5547;42.672;23.230;2022-12-18T06:49:00;94483.22;;;1.32;100.00
10988;BME280;5547;42.672;23.230;2022-12-18T06:52:01;94486.09;;;1.39;100.00
10988;BME280;5547;42.672;23.230;2022-12-18T06:55:01;94473.56;;;1.45;100.00
10988;BME280;5547;42.672;23.230;2022-12-18T06:58:01;94475.81;;;1.34;100.00
10988;BME280;5547;42.672;23.230;2022-12-18T07:01:04;94488.03;;;1.51;100.00
10988;BME280;5547;42.672;23.230;2022-12-18T07:04:05;94493.88;;;1.57;99.16
10988;BME280;5547;42.672;23.230;2022-12-18T07:07:05;94496.56;;;1.48;98.92
10988;BME280;5547;42.672;23.230;2022-12-18T07:10:06;94512.28;;;1.48;99.02
10988;BME280;5547;42.672;23.230;2022-12-18T07:13:07;94503.63;;;1.47;98.40
10988;BME280;5547;42.672;23.230;2022-12-18T07:16:09;94509.81;;;1.43;98.31
10988;BME280;5547;42.672;23.230;2022-12-18T07:19:10;94507.75;;;1.57;98.28
10988;BME280;5547;42.672;23.230;2022-12-18T07:22:10;94508.19;;;1.59;98.59
10988;BME280;5547;42.672;23.230;2022-12-18T07:25:11;94508.47;;;1.66;98.96
10988;BME280;5547;42.672;23.230;2022-12-18T07:28:11;94514.50;;;1.67;97.89
10988;BME280;5547;42.672;23.230;2022-12-18T07:31:18;94516.78;;;1.68;98.54
10988;BME280;5547;42.672;23.230;2022-12-18T07:34:18;94515.94;;;2.06;97.62
10988;BME280;5547;42.672;23.230;2022-12-18T07:37:19;94521.22;;;1.77;96.98
10988;BME280;5547;42.672;23.230;2022-12-18T07:40:19;94533.63;;;1.88;96.69
10988;BME280;5547;42.672;23.230;2022-12-18T07:43:19;94527.84;;;2.04;95.66
10988;BME280;5547;42.672;23.230;2022-12-18T07:46:20;94528.91;;;1.82;95.42
10988;BME280;5547;42.672;23.230;2022-12-18T07:49:20;94525.19;;;1.83;95.34
10988;BME280;5547;42.672;23.230;2022-12-18T07:52:21;94533.19;;;2.07;95.42
10988;BME280;5547;42.672;23.230;2022-12-18T07:55:21;94535.09;;;1.77;95.77
10988;BME280;5547;42.672;23.230;2022-12-18T07:58:22;94530.59;;;1.78;96.62
10988;BME280;5547;42.672;23.230;2022-12-18T08:01:22;94544.38;;;1.75;97.93
10988;BME280;5547;42.672;23.230;2022-12-18T08:04:22;94540.88;;;1.92;97.31
10988;BME280;5547;42.672;23.230;2022-12-18T08:07:23;94552.91;;;1.93;97.39
10988;BME280;5547;42.672;23.230;2022-12-18T08:10:23;94547.25;;;1.82;97.81
10988;BME280;5547;42.672;23.230;2022-12-18T08:13:24;94546.78;;;2.30;94.60
10988;BME280;5547;42.672;23.230;2022-12-18T08:16:25;94566.31;;;1.70;96.55
10988;BME280;5547;42.672;23.230;2022-12-18T08:19:25;94561.28;;;1.56;97.64
10988;BME280;5547;42.672;23.230;2022-12-18T08:22:26;94572.31;;;1.71;97.20
10988;BME280;5547;42.672;23.230;2022-12-18T08:25:26;94579.72;;;1.68;97.46
10988;BME280;5547;42.672;23.230;2022-12-18T08:28:27;94563.09;;;1.64;98.38
10988;BME280;5547;42.672;23.230;2022-12-18T08:31:29;94579.72;;;1.68;96.51
10988;BME280;5547;42.672;23.230;2022-12-18T08:34:30;94588.50;;;1.73;97.41
10988;BME280;5547;42.672;23.230;2022-12-18T08:37:30;94578.19;;;1.67;96.03
10988;BME280;5547;42.672;23.230;2022-12-18T08:40:30;94582.94;;;1.74;97.17
10988;BME280;5547;42.672;23.230;2022-12-18T08:43:31;94589.88;;;1.79;96.39
10988;BME280;5547;42.672;23.230;2022-12-18T08:46:50;94587.38;;;1.82;95.90
10988;BME280;5547;42.672;23.230;2022-12-18T08:49:50;94595.66;;;1.93;95.89
10988;BME280;5547;42.672;23.230;2022-12-18T08:52:51;94593.00;;;2.02;95.13
10988;BME280;5547;42.672;23.230;2022-12-18T08:55:52;94598.53;;;1.71;94.95
10988;BME280;5547;42.672;23.230;2022-12-18T08:58:53;94590.88;;;1.57;95.53
10988;BME280;5547;42.672;23.230;2022-12-18T09:01:54;94579.25;;;1.37;96.27
10988;BME280;5547;42.672;23.230;2022-12-18T09:04:55;94596.56;;;1.67;95.61
10988;BME280;5547;42.672;23.230;2022-12-18T09:07:55;94595.59;;;2.02;95.28
10988;BME280;5547;42.672;23.230;2022-12-18T09:10:56;94590.50;;;1.76;95.40
10988;BME280;5547;42.672;23.230;2022-12-18T09:13:59;94592.75;;;1.86;94.66
10988;BME280;5547;42.672;23.230;2022-12-18T09:16:59;94577.78;;;1.86;94.83
10988;BME280;5547;42.672;23.230;2022-12-18T09:20:00;94586.34;;;2.04;93.98
10988;BME280;5547;42.672;23.230;2022-12-18T09:23:00;94586.88;;;1.89;93.88
10988;BME280;5547;42.672;23.230;2022-12-18T09:26:01;94577.47;;;1.88;92.83
10988;BME280;5547;42.672;23.230;2022-12-18T09:29:02;94584.88;;;1.86;93.86
10988;BME280;5547;42.672;23.230;2022-12-18T09:32:03;94581.16;;;1.87;93.56
10988;BME280;5547;42.672;23.230;2022-12-18T09:35:04;94592.03;;;1.77;93.32
10988;BME280;5547;42.672;23.230;2022-12-18T09:38:05;94593.03;;;1.93;93.08
10988;BME280;5547;42.672;23.230;2022-12-18T09:47:34;94592.75;;;2.16;92.14
10988;BME280;5547;42.672;23.230;2022-12-18T09:50:38;94586.28;;;2.13;90.92
10988;BME280;5547;42.672;23.230;2022-12-18T09:53:41;94586.34;;;2.04;90.09
10988;BME280;5547;42.672;23.230;2022-12-18T09:56:44;94596.34;;;2.32;89.34
10988;BME280;5547;42.672;23.230;2022-12-18T09:59:50;94555.00;;;2.29;88.09
10988;BME280;5547;42.672;23.230;2022-12-18T10:02:53;94567.25;;;1.95;88.72
10988;BME280;5547;42.672;23.230;2022-12-18T10:06:13;94582.63;;;2.26;87.46
10988;BME280;5547;42.672;23.230;2022-12-18T10:09:33;94589.66;;;2.14;88.43
10988;BME280;5547;42.672;23.230;2022-12-18T10:12:49;94552.97;;;2.26;85.80
10988;BME280;5547;42.672;23.230;2022-12-18T10:26:02;94604.47;;;2.39;85.59
10988;BME280;5547;42.672;23.230;2022-12-18T10:29:10;94589.53;;;2.10;87.05
10988;BME280;5547;42.672;23.230;2022-12-18T10:32:20;94559.94;;;2.22;86.18
10988;BME280;5547;42.672;23.230;2022-12-18T10:35:26;94596.28;;;2.62;84.21
10988;BME280;5547;42.672;23.230;2022-12-18T10:38:29;94595.78;;;2.47;83.86
10988;BME280;5547;42.672;23.230;2022-12-18T10:41:29;94588.41;;;2.62;84.36
10988;BME280;5547;42.672;23.230;2022-12-18T10:44:31;94601.69;;;2.15;83.61
10988;BME280;5547;42.672;23.230;2022-12-18T10:47:33;94584.41;;;2.14;85.46
10988;BME280;5547;42.672;23.230;2022-12-18T10:50:36;94597.59;;;2.26;85.35
10988;BME280;5547;42.672;23.230;2022-12-18T10:53:39;94597.88;;;2.33;83.85
10988;BME280;5547;42.672;23.230;2022-12-18T10:56:42;94590.84;;;2.25;82.46
10988;BME280;5547;42.672;23.230;2022-12-18T10:59:53;94592.06;;;2.27;82.89
10988;BME280;5547;42.672;23.230;2022-12-18T11:02:55;94582.50;;;2.65;83.55
10988;BME280;5547;42.672;23.230;2022-12-18T11:06:07;94579.88;;;2.65;82.48
10988;BME280;5547;42.672;23.230;2022-12-18T11:09:19;94600.03;;;2.31;81.17
10988;BME280;5547;42.672;23.230;2022-12-18T11:12:22;94595.63;;;2.23;80.85
10988;BME280;5547;42.672;23.230;2022-12-18T11:15:27;94598.00;;;2.58;80.31
10988;BME280;5547;42.672;23.230;2022-12-18T11:18:33;94598.25;;;2.65;79.35
10988;BME280;5547;42.672;23.230;2022-12-18T11:21:41;94606.09;;;2.52;77.94
10988;BME280;5547;42.672;23.230;2022-12-18T11:24:42;94600.38;;;2.29;77.57
10988;BME280;5547;42.672;23.230;2022-12-18T11:27:55;94579.72;;;1.98;77.69
10988;BME280;5547;42.672;23.230;2022-12-18T11:31:15;94604.38;;;1.76;78.71
10988;BME280;5547;42.672;23.230;2022-12-18T11:34:25;94592.75;;;1.86;79.31
10988;BME280;5547;42.672;23.230;2022-12-18T11:37:28;94602.81;;;1.84;79.08
10988;BME280;5547;42.672;23.230;2022-12-18T11:40:40;94602.34;;;2.12;79.10
10988;BME280;5547;42.672;23.230;2022-12-18T11:43:56;94613.16;;;1.80;79.86
10988;BME280;5547;42.672;23.230;2022-12-18T11:47:19;94610.25;;;2.03;80.53
10988;BME280;5547;42.672;23.230;2022-12-18T11:50:26;94608.88;;;1.76;79.76
10988;BME280;5547;42.672;23.230;2022-12-18T11:53:29;94590.22;;;1.68;80.39
10988;BME280;5547;42.672;23.230;2022-12-18T11:56:36;94610.41;;;1.77;79.21
10988;BME280;5547;42.672;23.230;2022-12-18T12:00:03;94602.44;;;1.94;79.54
10988;BME280;5547;42.672;23.230;2022-12-18T12:03:19;94584.88;;;1.86;78.83
10988;BME280;5547;42.672;23.230;2022-12-18T12:19:44;94603.47;;;2.02;78.19
10988;BME280;5547;42.672;23.230;2022-12-18T12:23:02;94599.91;;;2.06;78.46
10988;BME280;5547;42.672;23.230;2022-12-18T12:26:10;94600.56;;;2.03;79.25
10988;BME280;5547;42.672;23.230;2022-12-18T12:36:23;94608.44;;;2.03;80.74
10988;BME280;5547;42.672;23.230;2022-12-18T12:39:32;94602.03;;;1.83;81.45
10988;BME280;5547;42.672;23.230;2022-12-18T12:42:39;94579.09;;;1.72;82.15
10988;BME280;5547;42.672;23.230;2022-12-18T12:46:11;94599.31;;;2.01;81.89
10988;BME280;5547;42.672;23.230;2022-12-18T12:49:17;94602.72;;;2.01;82.48
10988;BME280;5547;42.672;23.230;2022-12-18T12:53:13;94610.03;;;2.17;82.29
10988;BME280;5547;42.672;23.230;2022-12-18T12:55:52;94596.44;;;2.15;82.50
10988;BME280;5547;42.672;23.230;2022-12-18T13:03:06;94620.63;;;1.99;82.33
10988;BME280;5547;42.672;23.230;2022-12-18T13:08:55;94616.41;;;2.07;80.98
10988;BME280;5547;42.672;23.230;2022-12-18T13:12:02;94605.38;;;1.93;81.82
10988;BME280;5547;42.672;23.230;2022-12-18T13:18:28;94625.25;;;2.02;82.51
10988;BME280;5547;42.672;23.230;2022-12-18T13:21:31;94637.44;;;2.28;82.21
10988;BME280;5547;42.672;23.230;2022-12-18T13:24:33;94641.03;;;1.94;81.91
10988;BME280;5547;42.672;23.230;2022-12-18T13:30:49;94636.09;;;1.92;82.04
10988;BME280;5547;42.672;23.230;2022-12-18T13:33:50;94644.53;;;2.06;81.53
10988;BME280;5547;42.672;23.230;2022-12-18T13:36:52;94635.47;;;1.95;83.26
10988;BME280;5547;42.672;23.230;2022-12-18T13:39:52;94650.56;;;1.98;81.55
10988;BME280;5547;42.672;23.230;2022-12-18T13:42:53;94640.91;;;1.90;82.93
10988;BME280;5547;42.672;23.230;2022-12-18T13:46:46;94650.50;;;2.16;82.03
10988;BME280;5547;42.672;23.230;2022-12-18T13:49:47;94656.91;;;1.97;82.25
10988;BME280;5547;42.672;23.230;2022-12-18T13:52:48;94656.81;;;1.85;82.96
10988;BME280;5547;42.672;23.230;2022-12-18T13:55:49;94647.25;;;2.10;82.00
10988;BME280;5547;42.672;23.230;2022-12-18T13:59:13;94667.16;;;1.81;82.73
10988;BME280;5547;42.672;23.230;2022-12-18T14:02:16;94654.06;;;1.73;82.87
10988;BME280;5547;42.672;23.230;2022-12-18T14:08:27;94661.47;;;1.71;81.51
10988;BME280;5547;42.672;23.230;2022-12-18T14:11:31;94665.84;;;1.66;79.48
10988;BME280;5547;42.672;23.230;2022-12-18T14:14:32;94663.81;;;1.63;80.51
10988;BME280;5547;42.672;23.230;2022-12-18T14:17:33;94663.72;;;1.51;80.20
10988;BME280;5547;42.672;23.230;2022-12-18T14:20:34;94677.13;;;1.58;80.10
10988;BME280;5547;42.672;23.230;2022-12-18T14:23:41;94679.88;;;1.62;80.63
10988;BME280;5547;42.672;23.230;2022-12-18T14:26:42;94682.94;;;1.64;80.77
10988;BME280;5547;42.672;23.230;2022-12-18T14:29:43;94678.00;;;1.71;80.55
10988;BME280;5547;42.672;23.230;2022-12-18T14:32:59;94682.19;;;1.63;81.51
10988;BME280;5547;42.672;23.230;2022-12-18T14:36:02;94689.88;;;1.68;81.24
10988;BME280;5547;42.672;23.230;2022-12-18T14:39:03;94673.53;;;1.72;81.22
10988;BME280;5547;42.672;23.230;2022-12-18T14:42:04;94670.44;;;1.78;81.42
10988;BME280;5547;42.672;23.230;2022-12-18T14:45:36;94671.00;;;1.84;80.76
10988;BME280;5547;42.672;23.230;2022-12-18T14:48:37;94671.84;;;1.67;81.11
10988;BME280;5547;42.672;23.230;2022-12-18T14:51:39;94669.34;;;1.71;81.36
10988;BME280;5547;42.672;23.230;2022-12-18T14:54:39;94676.47;;;1.70;81.06
10988;BME280;5547;42.672;23.230;2022-12-18T14:57:39;94678.34;;;1.61;80.71
10988;BME280;5547;42.672;23.230;2022-12-18T15:00:43;94686.66;;;1.63;81.03
10988;BME280;5547;42.672;23.230;2022-12-18T15:03:44;94671.88;;;1.50;79.63
10988;BME280;5547;42.672;23.230;2022-12-18T15:06:45;94679.00;;;1.40;80.08
10988;BME280;5547;42.672;23.230;2022-12-18T15:10:03;94685.94;;;1.36;80.68
10988;BME280;5547;42.672;23.230;2022-12-18T15:13:15;94686.44;;;1.30;80.83
10988;BME280;5547;42.672;23.230;2022-12-18T15:16:21;94687.78;;;1.44;79.88
10988;BME280;5547;42.672;23.230;2022-12-18T15:19:25;94694.59;;;1.28;
10988;BME280;5547;42.672;23.230;2022-12-18T15:22:35;94696.00;;;1.25;81.16
10988;BME280;5547;42.672;23.230;2022-12-18T15:25:36;94680.28;;;1.17;81.57
10988;BME280;5547;42.672;23.230;2022-12-18T15:32:19;94665.66;;;0.98;80.08
10988;BME280;5547;42.672;23.230;2022-12-18T15:35:22;94701.72;;;1.19;80.06
10988;BME280;5547;42.672;23.230;2022-12-18T15:38:22;94705.38;;;1.26;78.27
10988;BME280;5547;42.672;23.230;2022-12-18T15:41:24;94714.50;;;1.12;80.32
10988;BME280;5547;42.672;23.230;2022-12-18T15:44:24;94712.34;;;1.05;80.74
10988;BME280;5547;42.672;23.230;2022-12-18T15:47:25;94727.16;;;1.18;80.17
10988;BME280;5547;42.672;23.230;2022-12-18T15:50:26;94725.75;;;1.21;78.76
10988;BME280;5547;42.672;23.230;2022-12-18T15:53:31;94728.97;;;1.26;77.79
10988;BME280;5547;42.672;23.230;2022-12-18T15:56:32;94739.31;;;1.14;77.30
10988;BME280;5547;42.672;23.230;2022-12-18T15:59:55;94748.84;;;1.01;77.85
10988;BME280;5547;42.672;23.230;2022-12-18T16:02:58;94753.66;;;0.99;78.06
10988;BME280;5547;42.672;23.230;2022-12-18T16:05:59;94747.94;;;0.89;77.79
10988;BME280;5547;42.672;23.230;2022-12-18T16:09:02;94763.34;;;0.81;77.74
10988;BME280;5547;42.672;23.230;2022-12-18T16:12:02;94769.97;;;0.79;77.74
10988;BME280;5547;42.672;23.230;2022-12-18T16:15:04;94763.03;;;0.74;78.51
10988;BME280;5547;42.672;23.230;2022-12-18T16:18:04;94762.41;;;0.77;79.31
10988;BME280;5547;42.672;23.230;2022-12-18T16:21:05;94761.03;;;0.80;79.79
10988;BME280;5547;42.672;23.230;2022-12-18T16:24:12;94733.75;;;0.72;80.03
10988;BME280;5547;42.672;23.230;2022-12-18T16:27:13;94758.56;;;0.92;80.75
10988;BME280;5547;42.672;23.230;2022-12-18T16:30:19;94770.72;;;0.79;78.93
10988;BME280;5547;42.672;23.230;2022-12-18T16:33:20;94770.09;;;0.74;78.94
10988;BME280;5547;42.672;23.230;2022-12-18T16:36:20;94762.56;;;0.72;77.82
10988;BME280;5547;42.672;23.230;2022-12-18T16:39:20;94782.47;;;0.91;79.51
10988;BME280;5547;42.672;23.230;2022-12-18T16:42:21;94776.13;;;0.83;80.60
10988;BME280;5547;42.672;23.230;2022-12-18T16:45:22;94783.22;;;0.82;79.72
10988;BME280;5547;42.672;23.230;2022-12-18T16:48:22;94787.47;;;0.61;79.28
10988;BME280;5547;42.672;23.230;2022-12-18T16:51:22;94800.69;;;0.47;79.96
10988;BME280;5547;42.672;23.230;2022-12-18T16:54:23;94816.09;;;0.57;79.71
10988;BME280;5547;42.672;23.230;2022-12-18T16:57:24;94804.22;;;0.43;78.47
10988;BME280;5547;42.672;23.230;2022-12-18T17:00:24;94792.00;;;0.29;77.55
10988;BME280;5547;42.672;23.230;2022-12-18T17:03:25;94820.97;;;0.33;77.65
10988;BME280;5547;42.672;23.230;2022-12-18T17:06:27;94823.25;;;0.34;77.99
10988;BME280;5547;42.672;23.230;2022-12-18T17:09:28;94822.34;;;0.30;78.53
10988;BME280;5547;42.672;23.230;2022-12-18T17:12:29;94824.25;;;0.16;78.84
10988;BME280;5547;42.672;23.230;2022-12-18T17:15:34;94834.25;;;0.14;78.81
10988;BME280;5547;42.672;23.230;2022-12-18T17:18:34;94835.50;;;0.16;79.98
10988;BME280;5547;42.672;23.230;2022-12-18T17:21:35;94820.94;;;0.02;80.15
10988;BME280;5547;42.672;23.230;2022-12-18T17:24:35;94826.50;;;0.00;81.36
10988;BME280;5547;42.672;23.230;2022-12-18T17:27:36;94841.03;;;0.15;81.20
10988;BME280;5547;42.672;23.230;2022-12-18T17:30:37;94834.84;;;0.11;80.75
10988;BME280;5547;42.672;23.230;2022-12-18T17:33:37;94846.00;;;0.25;80.62
10988;BME280;5547;42.672;23.230;2022-12-18T17:36:38;94821.69;;;-0.07;82.21
10988;BME280;5547;42.672;23.230;2022-12-18T17:39:38;94845.97;;;0.16;80.98
10988;BME280;5547;42.672;23.230;2022-12-18T17:42:39;94850.88;;;0.18;81.28
10988;BME280;5547;42.672;23.230;2022-12-18T17:45:39;94848.13;;;0.23;81.59